sensor_id;sensor_type;location;lat;lon;timestamp;pressure;altitude;pressure_sealevel;temperature;humidity
8697;BME280;4385;48.848;8.924;2023-08-07T00:02:20;97238.91;;;20.00;100.00
8697;BME280;4385;48.848;8.924;2023-08-07T00:04:46;97241.47;;;20.00;100.00
8697;BME280;4385;48.848;8.924;2023-08-07T00:07:11;97238.00;;;20.01;100.00
8697;BME280;4385;48.848;8.924;2023-08-07T00:09:36;97232.94;;;20.00;100.00
8697;BME280;4385;48.848;8.924;2023-08-07T00:12:02;97230.38;;;20.00;100.00
8697;BME280;4385;48.848;8.924;2023-08-07T00:14:28;97239.78;;;19.99;100.00
8697;BME280;4385;48.848;8.924;2023-08-07T00:16:53;97237.22;;;19.99;100.00
8697;BME280;4385;48.848;8.924;2023-08-07T00:19:19;97235.56;;;19.98;100.00
8697;BME280;4385;48.848;8.924;2023-08-07T00:21:44;97233.03;;;19.97;100.00
8697;BME280;4385;48.848;8.924;2023-08-07T00:24:09;97242.44;;;19.96;100.00
8697;BME280;4385;48.848;8.924;2023-08-07T00:26:34;97240.72;;;19.97;100.00
8697;BME280;4385;48.848;8.924;2023-08-07T00:29:00;97239.91;;;19.94;100.00
8697;BME280;4385;48.848;8.924;2023-08-07T00:31:25;97242.47;;;19.94;100.00
8697;BME280;4385;48.848;8.924;2023-08-07T00:33:50;97241.66;;;19.94;100.00
8697;BME280;4385;48.848;8.924;2023-08-07T00:36:19;97240.81;;;19.93;100.00
8697;BME280;4385;48.848;8.924;2023-08-07T00:38:44;97241.66;;;19.94;100.00
8697;BME280;4385;48.848;8.924;2023-08-07T00:41:09;97254.50;;;19.92;100.00
8697;BME280;4385;48.848;8.924;2023-08-07T00:43:35;97241.72;;;19.92;100.00
8697;BME280;4385;48.848;8.924;2023-08-07T00:46:01;97259.63;;;19.92;100.00
8697;BME280;4385;48.848;8.924;2023-08-07T00:48:26;97258.75;;;19.92;100.00
8697;BME280;4385;48.848;8.924;2023-08-07T00:50:52;97258.75;;;19.92;100.00
8697;BME280;4385;48.848;8.924;2023-08-07T00:53:19;97257.09;;;19.91;100.00
8697;BME280;4385;48.848;8.924;2023-08-07T00:55:44;97264.78;;;19.91;100.00
8697;BME280;4385;48.848;8.924;2023-08-07T00:58:10;97258.75;;;19.92;100.00
8697;BME280;4385;48.848;8.924;2023-08-07T01:00:36;97254.53;;;19.91;100.00
8697;BME280;4385;48.848;8.924;2023-08-07T01:03:04;97259.66;;;19.91;100.00
8697;BME280;4385;48.848;8.924;2023-08-07T01:05:30;97257.91;;;19.91;100.00
8697;BME280;4385;48.848;8.924;2023-08-07T01:07:55;97254.53;;;19.91;100.00
8697;BME280;4385;48.848;8.924;2023-08-07T01:10:39;97257.09;;;19.91;100.00
8697;BME280;4385;48.848;8.924;2023-08-07T01:13:23;97261.38;;;19.90;100.00
8697;BME280;4385;48.848;8.924;2023-08-07T01:15:52;97260.53;;;19.90;100.00
8697;BME280;4385;48.848;8.924;2023-08-07T01:18:21;97268.19;;;19.90;100.00
8697;BME280;4385;48.848;8.924;2023-08-07T01:20:47;97261.38;;;19.90;100.00
8697;BME280;4385;48.848;8.924;2023-08-07T01:23:12;97263.09;;;19.90;100.00
8697;BME280;4385;48.848;8.924;2023-08-07T01:25:38;97265.63;;;19.90;100.00
8697;BME280;4385;48.848;8.924;2023-08-07T01:28:27;97269.09;;;19.89;100.00
8697;BME280;4385;48.848;8.924;2023-08-07T01:30:59;97264.88;;;19.88;100.00
8697;BME280;4385;48.848;8.924;2023-08-07T01:33:51;97271.69;;;19.87;100.00
8697;BME280;4385;48.848;8.924;2023-08-07T01:36:18;97276.84;;;19.86;100.00
8697;BME280;4385;48.848;8.924;2023-08-07T01:38:43;97283.63;;;19.87;100.00
8697;BME280;4385;48.848;8.924;2023-08-07T01:41:09;97281.97;;;19.86;100.00
8697;BME280;4385;48.848;8.924;2023-08-07T01:43:34;97285.38;;;19.86;100.00
8697;BME280;4385;48.848;8.924;2023-08-07T01:46:00;97287.09;;;19.86;100.00
8697;BME280;4385;48.848;8.924;2023-08-07T01:48:25;97283.69;;;19.85;100.00
8697;BME280;4385;48.848;8.924;2023-08-07T01:50:50;97287.09;;;19.86;100.00
8697;BME280;4385;48.848;8.924;2023-08-07T01:53:16;97290.53;;;19.85;100.00
8697;BME280;4385;48.848;8.924;2023-08-07T01:55:41;97293.91;;;19.85;100.00
8697;BME280;4385;48.848;8.924;2023-08-07T01:58:06;97289.66;;;19.86;100.00
8697;BME280;4385;48.848;8.924;2023-08-07T02:00:32;97295.66;;;19.85;100.00
8697;BME280;4385;48.848;8.924;2023-08-07T02:02:57;97293.88;;;19.87;100.00
8697;BME280;4385;48.848;8.924;2023-08-07T02:05:22;97296.47;;;19.85;100.00
8697;BME280;4385;48.848;8.924;2023-08-07T02:07:48;97302.44;;;19.86;100.00
8697;BME280;4385;48.848;8.924;2023-08-07T02:10:13;97294.75;;;19.86;100.00
8697;BME280;4385;48.848;8.924;2023-08-07T02:12:38;97301.53;;;19.87;100.00
8697;BME280;4385;48.848;8.924;2023-08-07T02:15:04;97304.09;;;19.87;100.00
8697;BME280;4385;48.848;8.924;2023-08-07T02:17:30;97297.25;;;19.87;100.00
8697;BME280;4385;48.848;8.924;2023-08-07T02:19:55;97295.56;;;19.88;100.00
8697;BME280;4385;48.848;8.924;2023-08-07T02:22:21;97301.53;;;19.87;100.00
8697;BME280;4385;48.848;8.924;2023-08-07T02:24:46;97298.13;;;19.88;100.00
8697;BME280;4385;48.848;8.924;2023-08-07T02:27:11;97296.41;;;19.87;100.00
8697;BME280;4385;48.848;8.924;2023-08-07T02:29:37;97293.88;;;19.87;100.00
8697;BME280;4385;48.848;8.924;2023-08-07T02:32:03;97299.88;;;19.86;100.00
8697;BME280;4385;48.848;8.924;2023-08-07T02:34:29;97295.66;;;19.85;100.00
8697;BME280;4385;48.848;8.924;2023-08-07T02:36:54;97303.31;;;19.85;100.00
8697;BME280;4385;48.848;8.924;2023-08-07T02:39:19;97296.50;;;19.84;100.00
8697;BME280;4385;48.848;8.924;2023-08-07T02:41:45;97298.22;;;19.85;100.00
8697;BME280;4385;48.848;8.924;2023-08-07T02:44:10;97296.50;;;19.84;100.00
8697;BME280;4385;48.848;8.924;2023-08-07T02:46:36;97307.63;;;19.83;100.00
8697;BME280;4385;48.848;8.924;2023-08-07T02:49:01;97300.84;;;19.81;100.00
8697;BME280;4385;48.848;8.924;2023-08-07T02:51:27;97306.84;;;19.80;100.00
8697;BME280;4385;48.848;8.924;2023-08-07T02:53:52;97316.19;;;19.81;100.00
8697;BME280;4385;48.848;8.924;2023-08-07T02:56:17;97307.72;;;19.79;100.00
8697;BME280;4385;48.848;8.924;2023-08-07T02:58:43;97316.25;;;19.80;100.00
8697;BME280;4385;48.848;8.924;2023-08-07T03:01:08;97307.72;;;19.79;100.00
8697;BME280;4385;48.848;8.924;2023-08-07T03:03:34;97316.25;;;19.80;100.00
8697;BME280;4385;48.848;8.924;2023-08-07T03:06:00;97303.47;;;19.80;100.00
8697;BME280;4385;48.848;8.924;2023-08-07T03:08:25;97308.63;;;19.78;100.00
8697;BME280;4385;48.848;8.924;2023-08-07T03:10:55;97315.41;;;19.79;100.00
8697;BME280;4385;48.848;8.924;2023-08-07T03:13:21;97315.41;;;19.79;100.00
8697;BME280;4385;48.848;8.924;2023-08-07T03:15:47;97309.44;;;19.79;100.00
8697;BME280;4385;48.848;8.924;2023-08-07T03:18:14;97308.63;;;19.78;100.00
8697;BME280;4385;48.848;8.924;2023-08-07T03:20:39;97313.72;;;19.78;100.00
8697;BME280;4385;48.848;8.924;2023-08-07T03:23:05;97307.78;;;19.78;100.00
8697;BME280;4385;48.848;8.924;2023-08-07T03:25:30;97310.34;;;19.78;100.00
8697;BME280;4385;48.848;8.924;2023-08-07T03:27:55;97318.00;;;19.78;100.00
8697;BME280;4385;48.848;8.924;2023-08-07T03:30:20;97309.47;;;19.77;100.00
8697;BME280;4385;48.848;8.924;2023-08-07T03:32:46;97304.38;;;19.77;100.00
8697;BME280;4385;48.848;8.924;2023-08-07T03:35:11;97304.41;;;19.76;100.00
8697;BME280;4385;48.848;8.924;2023-08-07T03:37:36;97309.53;;;19.76;100.00
8697;BME280;4385;48.848;8.924;2023-08-07T03:40:02;97309.53;;;19.76;100.00
8697;BME280;4385;48.848;8.924;2023-08-07T03:42:27;97302.75;;;19.75;100.00
8697;BME280;4385;48.848;8.924;2023-08-07T03:44:52;97311.31;;;19.74;100.00
8697;BME280;4385;48.848;8.924;2023-08-07T03:47:17;97310.47;;;19.73;100.00
8697;BME280;4385;48.848;8.924;2023-08-07T03:49:43;97313.94;;;19.72;100.00
8697;BME280;4385;48.848;8.924;2023-08-07T03:52:08;97312.22;;;19.71;100.00
8697;BME280;4385;48.848;8.924;2023-08-07T03:54:33;97312.22;;;19.71;100.00
8697;BME280;4385;48.848;8.924;2023-08-07T03:56:59;97304.59;;;19.69;100.00
8697;BME280;4385;48.848;8.924;2023-08-07T03:59:24;97310.56;;;19.70;100.00
8697;BME280;4385;48.848;8.924;2023-08-07T04:01:49;97319.13;;;19.69;100.00
8697;BME280;4385;48.848;8.924;2023-08-07T04:04:15;97308.91;;;19.69;100.00
8697;BME280;4385;48.848;8.924;2023-08-07T04:06:40;97314.00;;;19.69;100.00
8697;BME280;4385;48.848;8.924;2023-08-07T04:09:05;97315.72;;;19.68;100.00
8697;BME280;4385;48.848;8.924;2023-08-07T04:11:30;97319.13;;;19.69;100.00
8697;BME280;4385;48.848;8.924;2023-08-07T04:13:58;97311.47;;;19.69;100.00
8697;BME280;4385;48.848;8.924;2023-08-07T04:16:23;97318.28;;;19.68;100.00
8697;BME280;4385;48.848;8.924;2023-08-07T04:18:48;97319.13;;;19.69;100.00
8697;BME280;4385;48.848;8.924;2023-08-07T04:21:14;97325.09;;;19.68;100.00
8697;BME280;4385;48.848;8.924;2023-08-07T04:23:39;97321.69;;;19.69;100.00
8697;BME280;4385;48.848;8.924;2023-08-07T04:26:04;97324.25;;;19.69;100.00
8697;BME280;4385;48.848;8.924;2023-08-07T04:28:30;97326.78;;;19.69;100.00
8697;BME280;4385;48.848;8.924;2023-08-07T04:30:55;97334.47;;;19.69;100.00
8697;BME280;4385;48.848;8.924;2023-08-07T04:33:20;97323.34;;;19.70;100.00
8697;BME280;4385;48.848;8.924;2023-08-07T04:35:46;97334.47;;;19.69;100.00
8697;BME280;4385;48.848;8.924;2023-08-07T04:38:15;97332.78;;;19.68;100.00
8697;BME280;4385;48.848;8.924;2023-08-07T04:40:47;97336.19;;;19.68;100.00
8697;BME280;4385;48.848;8.924;2023-08-07T04:43:16;97335.31;;;19.68;100.00
8697;BME280;4385;48.848;8.924;2023-08-07T04:45:42;97341.34;;;19.67;100.00
8697;BME280;4385;48.848;8.924;2023-08-07T04:48:10;97335.38;;;19.66;100.00
8697;BME280;4385;48.848;8.924;2023-08-07T04:50:36;97344.78;;;19.66;100.00
8697;BME280;4385;48.848;8.924;2023-08-07T04:53:02;97337.97;;;19.65;100.00
8697;BME280;4385;48.848;8.924;2023-08-07T04:55:27;97338.81;;;19.65;100.00
8697;BME280;4385;48.848;8.924;2023-08-07T04:57:52;97335.41;;;19.65;100.00
8697;BME280;4385;48.848;8.924;2023-08-07T05:00:20;97338.88;;;19.64;100.00
8697;BME280;4385;48.848;8.924;2023-08-07T05:02:46;97340.56;;;19.63;100.00
8697;BME280;4385;48.848;8.924;2023-08-07T05:05:13;97345.69;;;19.63;100.00
8697;BME280;4385;48.848;8.924;2023-08-07T05:07:39;97341.47;;;19.62;100.00
8697;BME280;4385;48.848;8.924;2023-08-07T05:10:05;97353.41;;;19.62;100.00
8697;BME280;4385;48.848;8.924;2023-08-07T05:12:31;97346.59;;;19.62;100.00
8697;BME280;4385;48.848;8.924;2023-08-07T05:14:56;97345.78;;;19.60;100.00
8697;BME280;4385;48.848;8.924;2023-08-07T05:17:21;97345.78;;;19.60;100.00
8697;BME280;4385;48.848;8.924;2023-08-07T05:19:47;97340.63;;;19.62;100.00
8697;BME280;4385;48.848;8.924;2023-08-07T05:22:12;97346.63;;;19.61;100.00
8697;BME280;4385;48.848;8.924;2023-08-07T05:24:37;97352.59;;;19.61;100.00
8697;BME280;4385;48.848;8.924;2023-08-07T05:27:08;97355.97;;;19.62;100.00
8697;BME280;4385;48.848;8.924;2023-08-07T05:29:36;97355.97;;;19.62;100.00
8697;BME280;4385;48.848;8.924;2023-08-07T05:32:09;97359.41;;;19.61;100.00
8697;BME280;4385;48.848;8.924;2023-08-07T05:34:35;97366.19;;;19.62;100.00
8697;BME280;4385;48.848;8.924;2023-08-07T05:37:00;97368.75;;;19.62;100.00
8697;BME280;4385;48.848;8.924;2023-08-07T05:39:25;97370.44;;;19.63;100.00
8697;BME280;4385;48.848;8.924;2023-08-07T05:41:51;97367.88;;;19.63;100.00
8697;BME280;4385;48.848;8.924;2023-08-07T05:44:19;97379.81;;;19.62;100.00
8697;BME280;4385;48.848;8.924;2023-08-07T05:46:44;97374.69;;;19.62;100.00
8697;BME280;4385;48.848;8.924;2023-08-07T05:49:09;97375.53;;;19.63;100.00
8697;BME280;4385;48.848;8.924;2023-08-07T05:51:34;97380.66;;;19.63;100.00
8697;BME280;4385;48.848;8.924;2023-08-07T05:54:00;97378.09;;;19.63;100.00
8697;BME280;4385;48.848;8.924;2023-08-07T05:56:25;97378.97;;;19.62;100.00
8697;BME280;4385;48.848;8.924;2023-08-07T05:58:50;97379.84;;;19.61;100.00
8697;BME280;4385;48.848;8.924;2023-08-07T06:01:15;97379.84;;;19.61;100.00
8697;BME280;4385;48.848;8.924;2023-08-07T06:03:42;97383.31;;;19.60;100.00
8697;BME280;4385;48.848;8.924;2023-08-07T06:06:07;97388.41;;;19.60;100.00
8697;BME280;4385;48.848;8.924;2023-08-07T06:08:33;97390.13;;;19.59;100.00
8697;BME280;4385;48.848;8.924;2023-08-07T06:10:59;97387.56;;;19.59;100.00
8697;BME280;4385;48.848;8.924;2023-08-07T06:13:28;97384.16;;;19.59;100.00
8697;BME280;4385;48.848;8.924;2023-08-07T06:15:53;97387.59;;;19.58;100.00
8697;BME280;4385;48.848;8.924;2023-08-07T06:18:19;97396.94;;;19.59;100.00
8697;BME280;4385;48.848;8.924;2023-08-07T06:20:45;97402.91;;;19.59;100.00
8697;BME280;4385;48.848;8.924;2023-08-07T06:23:10;97392.69;;;19.59;100.00
8697;BME280;4385;48.848;8.924;2023-08-07T06:25:35;97396.06;;;19.60;100.00
8697;BME280;4385;48.848;8.924;2023-08-07T06:28:00;97398.59;;;19.61;100.00
8697;BME280;4385;48.848;8.924;2023-08-07T06:30:26;97391.75;;;19.62;100.00
8697;BME280;4385;48.848;8.924;2023-08-07T06:32:51;97398.59;;;19.61;100.00
8697;BME280;4385;48.848;8.924;2023-08-07T06:35:16;97409.63;;;19.62;100.00
8697;BME280;4385;48.848;8.924;2023-08-07T06:37:41;97401.97;;;19.62;100.00
8697;BME280;4385;48.848;8.924;2023-08-07T06:40:07;97401.97;;;19.62;100.00
8697;BME280;4385;48.848;8.924;2023-08-07T06:42:32;97407.03;;;19.63;100.00
8697;BME280;4385;48.848;8.924;2023-08-07T06:44:58;97401.91;;;19.63;100.00
8697;BME280;4385;48.848;8.924;2023-08-07T06:47:23;97393.44;;;19.63;100.00
8697;BME280;4385;48.848;8.924;2023-08-07T06:49:48;97398.53;;;19.63;100.00
8697;BME280;4385;48.848;8.924;2023-08-07T06:52:14;97404.44;;;19.65;100.00
8697;BME280;4385;48.848;8.924;2023-08-07T06:54:39;97405.28;;;19.65;100.00
8697;BME280;4385;48.848;8.924;2023-08-07T06:57:05;97397.66;;;19.64;100.00
8697;BME280;4385;48.848;8.924;2023-08-07T06:59:30;97401.88;;;19.65;100.00
8697;BME280;4385;48.848;8.924;2023-08-07T07:01:56;97404.44;;;19.65;100.00
8697;BME280;4385;48.848;8.924;2023-08-07T07:04:21;97412.16;;;19.63;100.00
8697;BME280;4385;48.848;8.924;2023-08-07T07:06:46;97413.88;;;19.63;100.00
8697;BME280;4385;48.848;8.924;2023-08-07T07:09:11;97410.41;;;19.65;100.00
8697;BME280;4385;48.848;8.924;2023-08-07T07:11:41;97410.41;;;19.65;100.00
8697;BME280;4385;48.848;8.924;2023-08-07T07:14:06;97419.84;;;19.62;100.00
8697;BME280;4385;48.848;8.924;2023-08-07T07:16:31;97409.63;;;19.62;100.00
8697;BME280;4385;48.848;8.924;2023-08-07T07:18:57;97418.19;;;19.61;100.00
8697;BME280;4385;48.848;8.924;2023-08-07T07:21:23;97422.41;;;19.62;100.00
8697;BME280;4385;48.848;8.924;2023-08-07T07:23:48;97429.25;;;19.61;100.00
8697;BME280;4385;48.848;8.924;2023-08-07T07:26:14;97430.09;;;19.62;100.00
8697;BME280;4385;48.848;8.924;2023-08-07T07:28:39;97433.53;;;19.61;100.00
8697;BME280;4385;48.848;8.924;2023-08-07T07:31:04;97436.97;;;19.60;100.00
8697;BME280;4385;48.848;8.924;2023-08-07T07:33:30;97442.09;;;19.60;100.00
8697;BME280;4385;48.848;8.924;2023-08-07T07:35:55;97441.19;;;19.61;100.00
8697;BME280;4385;48.848;8.924;2023-08-07T07:38:21;97447.97;;;19.62;100.00
8697;BME280;4385;48.848;8.924;2023-08-07T07:40:47;97447.13;;;19.63;100.00
8697;BME280;4385;48.848;8.924;2023-08-07T07:43:12;97452.22;;;19.63;100.00
8697;BME280;4385;48.848;8.924;2023-08-07T07:45:37;97456.44;;;19.64;100.00
8697;BME280;4385;48.848;8.924;2023-08-07T07:48:03;97468.38;;;19.63;100.00
8697;BME280;4385;48.848;8.924;2023-08-07T07:50:29;97463.28;;;19.63;100.00
8697;BME280;4385;48.848;8.924;2023-08-07T07:52:54;97473.44;;;19.65;100.00
8697;BME280;4385;48.848;8.924;2023-08-07T07:55:20;97470.91;;;19.65;100.00
8697;BME280;4385;48.848;8.924;2023-08-07T07:57:45;97476.84;;;19.65;100.00
8697;BME280;4385;48.848;8.924;2023-08-07T08:00:11;97470.91;;;19.65;100.00
8697;BME280;4385;48.848;8.924;2023-08-07T08:02:38;97466.63;;;19.65;100.00
8697;BME280;4385;48.848;8.924;2023-08-07T08:05:05;97472.59;;;19.66;100.00
8697;BME280;4385;48.848;8.924;2023-08-07T08:07:31;97465.75;;;19.66;100.00
8697;BME280;4385;48.848;8.924;2023-08-07T08:09:57;97475.16;;;19.66;100.00
8697;BME280;4385;48.848;8.924;2023-08-07T08:12:22;97469.19;;;19.65;100.00
8697;BME280;4385;48.848;8.924;2023-08-07T08:14:47;97460.66;;;19.65;100.00
8697;BME280;4385;48.848;8.924;2023-08-07T08:17:13;97466.66;;;19.64;100.00
8697;BME280;4385;48.848;8.924;2023-08-07T08:19:39;97474.34;;;19.64;100.00
8697;BME280;4385;48.848;8.924;2023-08-07T08:22:04;97476.91;;;19.64;100.00
8697;BME280;4385;48.848;8.924;2023-08-07T08:24:30;97479.44;;;19.64;100.00
8697;BME280;4385;48.848;8.924;2023-08-07T08:26:56;97481.19;;;19.62;100.00
8697;BME280;4385;48.848;8.924;2023-08-07T08:29:22;97479.44;;;19.64;100.00
8697;BME280;4385;48.848;8.924;2023-08-07T08:31:47;97479.44;;;19.64;100.00
8697;BME280;4385;48.848;8.924;2023-08-07T08:34:12;97484.56;;;19.64;100.00
8697;BME280;4385;48.848;8.924;2023-08-07T08:36:37;97491.34;;;19.65;100.00
8697;BME280;4385;48.848;8.924;2023-08-07T08:39:03;97493.03;;;19.66;100.00
8697;BME280;4385;48.848;8.924;2023-08-07T08:41:28;97477.72;;;19.66;100.00
8697;BME280;4385;48.848;8.924;2023-08-07T08:43:54;97504.09;;;19.66;100.00
8697;BME280;4385;48.848;8.924;2023-08-07T08:46:20;97492.16;;;19.67;100.00
8697;BME280;4385;48.848;8.924;2023-08-07T08:48:51;97486.16;;;19.68;100.00
8697;BME280;4385;48.848;8.924;2023-08-07T08:51:16;97490.38;;;19.71;100.00
8697;BME280;4385;48.848;8.924;2023-08-07T08:53:45;97487.81;;;19.71;100.00
8697;BME280;4385;48.848;8.924;2023-08-07T08:56:11;97492.88;;;19.72;100.00
8697;BME280;4385;48.848;8.924;2023-08-07T08:58:37;97498.81;;;19.73;100.00
8697;BME280;4385;48.848;8.924;2023-08-07T09:01:04;97501.41;;;19.71;100.00
8697;BME280;4385;48.848;8.924;2023-08-07T09:03:30;97485.19;;;19.72;100.00
8697;BME280;4385;48.848;8.924;2023-08-07T09:05:57;97486.88;;;19.73;100.00
8697;BME280;4385;48.848;8.924;2023-08-07T09:08:25;97489.44;;;19.73;100.00
8697;BME280;4385;48.848;8.924;2023-08-07T09:10:52;97481.75;;;19.73;100.00
8697;BME280;4385;48.848;8.924;2023-08-07T09:13:18;97488.56;;;19.73;100.00
8697;BME280;4385;48.848;8.924;2023-08-07T09:15:45;97499.66;;;19.73;100.00
8697;BME280;4385;48.848;8.924;2023-08-07T09:18:15;97510.72;;;19.74;100.00
8697;BME280;4385;48.848;8.924;2023-08-07T09:20:42;97504.75;;;19.73;100.00
8697;BME280;4385;48.848;8.924;2023-08-07T09:23:07;97506.44;;;19.74;100.00
8697;BME280;4385;48.848;8.924;2023-08-07T09:25:33;97510.72;;;19.74;100.00
8697;BME280;4385;48.848;8.924;2023-08-07T09:28:03;97511.59;;;19.73;100.00
8697;BME280;4385;48.848;8.924;2023-08-07T09:30:29;97515.00;;;19.73;100.00
8697;BME280;4385;48.848;8.924;2023-08-07T09:32:59;97515.00;;;19.73;100.00
8697;BME280;4385;48.848;8.924;2023-08-07T09:35:25;97511.53;;;19.74;100.00
8697;BME280;4385;48.848;8.924;2023-08-07T09:37:51;97520.09;;;19.73;100.00
8697;BME280;4385;48.848;8.924;2023-08-07T09:40:17;97526.06;;;19.74;100.00
8697;BME280;4385;48.848;8.924;2023-08-07T09:42:43;97532.00;;;19.74;100.00
8697;BME280;4385;48.848;8.924;2023-08-07T09:45:25;97525.19;;;19.75;100.00
8697;BME280;4385;48.848;8.924;2023-08-07T09:48:01;97532.84;;;19.75;100.00
8697;BME280;4385;48.848;8.924;2023-08-07T09:50:27;97531.13;;;19.75;100.00
8697;BME280;4385;48.848;8.924;2023-08-07T09:52:53;97518.34;;;19.75;100.00
8697;BME280;4385;48.848;8.924;2023-08-07T09:55:20;97516.63;;;19.76;100.00
8697;BME280;4385;48.848;8.924;2023-08-07T09:57:45;97520.88;;;19.77;100.00
8697;BME280;4385;48.848;8.924;2023-08-07T10:00:12;97521.69;;;19.77;100.00
8697;BME280;4385;48.848;8.924;2023-08-07T10:02:39;97518.31;;;19.77;100.00
8697;BME280;4385;48.848;8.924;2023-08-07T10:05:06;97521.69;;;19.77;100.00
8697;BME280;4385;48.848;8.924;2023-08-07T10:07:32;97520.88;;;19.77;100.00
8697;BME280;4385;48.848;8.924;2023-08-07T10:10:02;97519.97;;;19.78;100.00
8697;BME280;4385;48.848;8.924;2023-08-07T10:12:28;97512.31;;;19.78;100.00
8697;BME280;4385;48.848;8.924;2023-08-07T10:14:54;97520.84;;;19.78;100.00
8697;BME280;4385;48.848;8.924;2023-08-07T10:17:23;97519.13;;;19.77;100.00
8697;BME280;4385;48.848;8.924;2023-08-07T10:19:51;97526.75;;;19.79;100.00
8697;BME280;4385;48.848;8.924;2023-08-07T10:22:17;97520.84;;;19.78;100.00
8697;BME280;4385;48.848;8.924;2023-08-07T10:24:43;97521.69;;;19.77;100.00
8697;BME280;4385;48.848;8.924;2023-08-07T10:27:12;97537.03;;;19.77;100.00
8697;BME280;4385;48.848;8.924;2023-08-07T10:29:39;97534.47;;;19.77;100.00
8697;BME280;4385;48.848;8.924;2023-08-07T10:32:06;97546.41;;;19.78;100.00
8697;BME280;4385;48.848;8.924;2023-08-07T10:34:33;97534.47;;;19.77;100.00
8697;BME280;4385;48.848;8.924;2023-08-07T10:36:59;97540.44;;;19.78;100.00
8697;BME280;4385;48.848;8.924;2023-08-07T10:39:24;97529.38;;;19.77;100.00
8697;BME280;4385;48.848;8.924;2023-08-07T10:41:53;97536.16;;;19.78;100.00
8697;BME280;4385;48.848;8.924;2023-08-07T10:44:24;97540.44;;;19.78;100.00
8697;BME280;4385;48.848;8.924;2023-08-07T10:46:54;97538.72;;;19.78;100.00
8697;BME280;4385;48.848;8.924;2023-08-07T10:49:33;97531.88;;;19.79;100.00
8697;BME280;4385;48.848;8.924;2023-08-07T10:52:13;97537.84;;;19.79;100.00
8697;BME280;4385;48.848;8.924;2023-08-07T10:54:41;97538.66;;;19.81;100.00
8697;BME280;4385;48.848;8.924;2023-08-07T10:57:14;97537.78;;;19.81;100.00
8697;BME280;4385;48.848;8.924;2023-08-07T11:02:28;97544.56;;;19.82;100.00
8697;BME280;4385;48.848;8.924;2023-08-07T11:04:54;97543.75;;;19.81;100.00
8697;BME280;4385;48.848;8.924;2023-08-07T11:07:26;97545.47;;;19.81;100.00
8697;BME280;4385;48.848;8.924;2023-08-07T11:09:53;97551.38;;;19.83;100.00
8697;BME280;4385;48.848;8.924;2023-08-07T11:12:19;97545.44;;;19.83;100.00
8697;BME280;4385;48.848;8.924;2023-08-07T11:14:45;97548.84;;;19.83;100.00
8697;BME280;4385;48.848;8.924;2023-08-07T11:17:11;97548.88;;;19.81;100.00
8697;BME280;4385;48.848;8.924;2023-08-07T11:19:36;97554.00;;;19.81;100.00
8697;BME280;4385;48.848;8.924;2023-08-07T11:22:02;97554.81;;;19.82;100.00
8697;BME280;4385;48.848;8.924;2023-08-07T11:24:27;97562.47;;;19.82;100.00
8697;BME280;4385;48.848;8.924;2023-08-07T11:26:53;97561.63;;;19.83;100.00
8697;BME280;4385;48.848;8.924;2023-08-07T11:29:21;97565.88;;;19.83;100.00
8697;BME280;4385;48.848;8.924;2023-08-07T11:31:48;97571.00;;;19.83;100.00
8697;BME280;4385;48.848;8.924;2023-08-07T11:34:13;97571.00;;;19.83;100.00
8697;BME280;4385;48.848;8.924;2023-08-07T11:36:42;97567.59;;;19.82;100.00
8697;BME280;4385;48.848;8.924;2023-08-07T11:39:08;97566.78;;;19.81;100.00
8697;BME280;4385;48.848;8.924;2023-08-07T11:41:33;97571.88;;;19.81;100.00
8697;BME280;4385;48.848;8.924;2023-08-07T11:43:58;97568.53;;;19.79;100.00
8697;BME280;4385;48.848;8.924;2023-08-07T11:46:25;97571.94;;;19.80;100.00
8697;BME280;4385;48.848;8.924;2023-08-07T11:48:52;97570.19;;;19.80;100.00
8697;BME280;4385;48.848;8.924;2023-08-07T11:51:20;97562.53;;;19.80;100.00
8697;BME280;4385;48.848;8.924;2023-08-07T11:53:45;97566.78;;;19.81;100.00
8697;BME280;4385;48.848;8.924;2023-08-07T11:56:12;97563.38;;;19.81;100.00
8697;BME280;4385;48.848;8.924;2023-08-07T11:58:42;97567.63;;;19.80;100.00
8697;BME280;4385;48.848;8.924;2023-08-07T12:01:24;97567.59;;;19.82;100.00
8697;BME280;4385;48.848;8.924;2023-08-07T12:04:10;97575.25;;;19.82;100.00
8697;BME280;4385;48.848;8.924;2023-08-07T12:06:36;97568.44;;;19.83;100.00
8697;BME280;4385;48.848;8.924;2023-08-07T12:09:05;97571.88;;;19.81;100.00
8697;BME280;4385;48.848;8.924;2023-08-07T12:11:31;97569.34;;;19.81;100.00
8697;BME280;4385;48.848;8.924;2023-08-07T12:13:59;97573.56;;;19.83;100.00
8697;BME280;4385;48.848;8.924;2023-08-07T12:16:25;97579.56;;;19.81;100.00
8697;BME280;4385;48.848;8.924;2023-08-07T12:18:51;97575.25;;;19.82;100.00
8697;BME280;4385;48.848;8.924;2023-08-07T12:21:19;97573.56;;;19.83;100.00
8697;BME280;4385;48.848;8.924;2023-08-07T12:23:46;97561.63;;;19.83;100.00
8697;BME280;4385;48.848;8.924;2023-08-07T12:26:15;97567.56;;;19.84;100.00
8697;BME280;4385;48.848;8.924;2023-08-07T12:28:40;97569.25;;;19.85;100.00
8697;BME280;4385;48.848;8.924;2023-08-07T12:31:05;97566.69;;;19.85;100.00
8697;BME280;4385;48.848;8.924;2023-08-07T12:33:32;97571.81;;;19.85;100.00
8697;BME280;4385;48.848;8.924;2023-08-07T12:35:58;97569.25;;;19.85;100.00
8697;BME280;4385;48.848;8.924;2023-08-07T12:38:24;97562.41;;;19.85;100.00
8697;BME280;4385;48.848;8.924;2023-08-07T12:40:49;97570.91;;;19.86;100.00
8697;BME280;4385;48.848;8.924;2023-08-07T12:43:14;97565.81;;;19.86;100.00
8697;BME280;4385;48.848;8.924;2023-08-07T12:45:40;97570.91;;;19.86;100.00
8697;BME280;4385;48.848;8.924;2023-08-07T12:48:05;97570.06;;;19.85;100.00
8697;BME280;4385;48.848;8.924;2023-08-07T12:50:30;97564.13;;;19.85;100.00
8697;BME280;4385;48.848;8.924;2023-08-07T12:52:56;97570.91;;;19.86;100.00
8697;BME280;4385;48.848;8.924;2023-08-07T12:55:21;97571.81;;;19.85;100.00
8697;BME280;4385;48.848;8.924;2023-08-07T12:57:47;97578.63;;;19.84;100.00
8697;BME280;4385;48.848;8.924;2023-08-07T13:00:14;97571.81;;;19.85;100.00
8697;BME280;4385;48.848;8.924;2023-08-07T13:02:41;97574.38;;;19.85;100.00
8697;BME280;4385;48.848;8.924;2023-08-07T13:05:07;97574.31;;;19.86;100.00
8697;BME280;4385;48.848;8.924;2023-08-07T13:07:33;97573.44;;;19.87;100.00
8697;BME280;4385;48.848;8.924;2023-08-07T13:09:59;97575.94;;;19.89;100.00